LFQQ/LIL METAR and TAF weather

Enter ICAO airport designator
Station Type Date Time Source
LFQQ METAR 2019/10/18 10:30 UTC NOAA

LFQQ 181030Z AUTO 22019KT CAVOK 12/07 Q1005 TEMPO 22020G37KT 1500 SHRA BKN015CB SCT020 BKN035


Station Type Date Time Source
LFQQ Decoded METAR 2019/10/18 10:30 UTC NOAA

Lille, France (LFQQ) 50-34N 003-06E 52M
Oct 18, 2019 - 06:30 AM EDT / 2019.10.18 1030 UTC
Wind: from the SW (220 degrees) at 22 MPH (19 KT):0
Visibility: greater than 7 mile(s):0
Weather: Cumulonimbus clouds observed
Temperature: 53 F (12 C)
Dew Point: 44 F (7 C)
Relative Humidity: 71%
Pressure (altimeter): 29.68 in. Hg (1005 hPa)
ob: LFQQ 181030Z AUTO 22019KT CAVOK 12/07 Q1005 TEMPO 22020G37KT 1500 SHRA BKN015CB SCT020 BKN035
cycle: 10

Station Type Date Time Source
LFQQ TAF 2019/10/18 06:51 UTC NOAA

TAF LFQQ 180500Z 1806/1912 18017G27KT 9999 SCT020 BKN035
TEMPO 1806/1815 22020G37KT 1500 SHRA BKN015CB SCT020 BKN035 PROB30
TEMPO 1806/1815 TSRA
BECMG 1816/1818 18015KT
BECMG 1901/1904 BKN013 OVC030
TEMPO 1904/1909 4000 RA OVC007
TEMPO 1909/1912 4000 SHRA SCT010CB BKN020

Example: see airport list